Time;durP1;ratioP1;P1;durP2;ratioP2;P2;SDS_P1;SDS_P2;PMS_P1;PMS_P2;Temp;Humidity;BMP_temperature;BMP_pressure;BME280_temperature;BME280_humidity;BME280_pressure;Samples;Min_cycle;Max_cycle;Signal;HPM_P1;HPM_P2
2021/09/10 00:01:38;;;;;;;6.03;4.18;;;;;;;;;;5073059;28;20250;-81
2021/09/10 00:04:05;;;;;;;8.45;4.35;;;;;;;;;;5072313;28;20290;-81
2021/09/10 00:06:32;;;;;;;8.70;4.40;;;;;;;;;;5074311;28;20327;-81
2021/09/10 00:09:01;;;;;;;9.27;4.10;;;;;;;;;;5065536;28;20286;-82
2021/09/10 00:11:28;;;;;;;12.07;4.53;;;;;;;;;;5057639;28;20692;-81
2021/09/10 00:13:56;;;;;;;10.43;4.97;;;;;;;;;;5066829;28;20762;-81
2021/09/10 00:16:23;;;;;;;6.70;4.50;;;;;;;;;;5054033;28;20224;-81
2021/09/10 00:18:50;;;;;;;9.95;4.22;;;;;;;;;;5060118;28;20282;-81
2021/09/10 00:21:18;;;;;;;6.75;4.18;;;;;;;;;;5071665;28;20227;-81
2021/09/10 00:23:45;;;;;;;9.00;4.65;;;;;;;;;;5058978;28;20633;-81
2021/09/10 00:26:14;;;;;;;6.55;4.63;;;;;;;;;;5064973;28;20250;-82
2021/09/10 00:28:42;;;;;;;8.85;4.45;;;;;;;;;;5065545;28;20199;-82
2021/09/10 00:31:09;;;;;;;6.30;4.63;;;;;;;;;;5073045;28;20213;-81
2021/09/10 00:33:36;;;;;;;8.60;5.10;;;;;;;;;;5073991;28;20283;-81
2021/09/10 00:36:04;;;;;;;10.32;4.72;;;;;;;;;;5074333;28;20330;-82
2021/09/10 00:38:31;;;;;;;11.73;5.60;;;;;;;;;;5062969;28;20226;-81
2021/09/10 00:40:58;;;;;;;9.80;5.00;;;;;;;;;;5068545;28;20678;-81
2021/09/10 00:43:27;;;;;;;11.43;5.07;;;;;;;;;;5071040;28;20235;-81
2021/09/10 00:45:57;;;;;;;8.88;4.60;;;;;;;;;;5061324;28;20299;-81
2021/09/10 00:48:25;;;;;;;9.60;5.18;;;;;;;;;;5062978;28;20763;-81
2021/09/10 00:50:52;;;;;;;12.02;5.80;;;;;;;;;;5062280;28;20751;-82
2021/09/10 00:53:19;;;;;;;12.60;5.45;;;;;;;;;;5070819;28;20415;-81
2021/09/10 00:55:47;;;;;;;8.98;5.72;;;;;;;;;;5053863;28;20227;-81
2021/09/10 00:58:15;;;;;;;9.88;5.28;;;;;;;;;;5059981;28;20282;-81
2021/09/10 01:00:44;;;;;;;8.77;5.07;;;;;;;;;;5063537;28;20283;-81
2021/09/10 01:03:14;;;;;;;8.93;5.15;;;;;;;;;;5070766;28;20323;-82
2021/09/10 01:05:42;;;;;;;12.68;5.22;;;;;;;;;;5072484;28;20284;-82
2021/09/10 01:08:11;;;;;;;10.73;5.70;;;;;;;;;;5073781;28;20619;-81
2021/09/10 01:10:39;;;;;;;10.45;5.18;;;;;;;;;;5062925;28;20709;-82
2021/09/10 01:13:06;;;;;;;11.25;5.10;;;;;;;;;;5059438;28;20199;-81
2021/09/10 01:15:33;;;;;;;10.10;5.50;;;;;;;;;;5067451;28;20279;-81
2021/09/10 01:18:02;;;;;;;11.10;5.13;;;;;;;;;;5061089;28;20219;-81
2021/09/10 01:20:29;;;;;;;8.68;5.57;;;;;;;;;;5068417;28;20290;-81
2021/09/10 01:22:56;;;;;;;10.98;5.45;;;;;;;;;;5057931;28;20237;-82
2021/09/10 01:25:25;;;;;;;8.68;5.18;;;;;;;;;;5067424;28;20648;-81
2021/09/10 01:27:56;;;;;;;11.98;4.97;;;;;;;;;;5072305;28;20278;-81
2021/09/10 01:30:24;;;;;;;8.35;4.82;;;;;;;;;;5062873;28;20290;-80
2021/09/10 01:32:51;;;;;;;10.52;4.85;;;;;;;;;;5069496;28;20226;-81
2021/09/10 01:35:21;;;;;;;7.93;4.80;;;;;;;;;;5061521;28;20279;-82
2021/09/10 01:37:48;;;;;;;10.55;4.63;;;;;;;;;;5063932;28;20291;-81
2021/09/10 01:40:16;;;;;;;7.65;4.55;;;;;;;;;;5064360;28;20233;-81
2021/09/10 01:42:46;;;;;;;10.60;4.30;;;;;;;;;;5062766;28;20285;-81
2021/09/10 01:45:14;;;;;;;7.40;4.28;;;;;;;;;;5060440;28;20286;-81
2021/09/10 01:47:43;;;;;;;7.82;4.18;;;;;;;;;;5067880;28;20300;-81
2021/09/10 01:50:13;;;;;;;7.88;4.57;;;;;;;;;;5069642;28;20294;-81
2021/09/10 01:52:42;;;;;;;9.90;4.65;;;;;;;;;;5064704;28;20224;-81
2021/09/10 01:55:12;;;;;;;8.85;4.97;;;;;;;;;;5062374;28;20307;-82
2021/09/10 01:57:42;;;;;;;9.63;5.00;;;;;;;;;;5065407;28;20679;-81
2021/09/10 02:00:13;;;;;;;9.13;4.65;;;;;;;;;;5062350;28;20711;-82
2021/09/10 02:02:42;;;;;;;7.32;4.57;;;;;;;;;;5071345;28;20277;-81
2021/09/10 02:05:13;;;;;;;9.18;5.38;;;;;;;;;;5068459;28;20600;-81
2021/09/10 02:07:42;;;;;;;8.40;4.88;;;;;;;;;;5071670;28;20242;-81
2021/09/10 02:10:14;;;;;;;7.55;4.88;;;;;;;;;;5061806;28;20231;-82
2021/09/10 02:12:43;;;;;;;8.23;5.13;;;;;;;;;;5066591;28;20282;-81
2021/09/10 02:15:15;;;;;;;9.60;5.50;;;;;;;;;;5068856;28;20581;-81
2021/09/10 02:17:45;;;;;;;9.15;5.30;;;;;;;;;;5064935;28;20226;-81
2021/09/10 02:20:15;;;;;;;10.07;6.05;;;;;;;;;;5062477;28;20239;-81
2021/09/10 02:22:45;;;;;;;9.77;5.50;;;;;;;;;;5060601;28;20231;-81
2021/09/10 02:25:15;;;;;;;8.68;5.30;;;;;;;;;;5056630;28;20196;-81
2021/09/10 02:27:44;;;;;;;9.25;5.65;;;;;;;;;;5077322;28;20219;-82
2021/09/10 02:30:16;;;;;;;10.98;5.88;;;;;;;;;;5070052;28;20282;-81
2021/09/10 02:32:45;;;;;;;9.75;5.97;;;;;;;;;;5057339;28;20287;-81
2021/09/10 02:35:15;;;;;;;8.00;5.30;;;;;;;;;;5066459;28;20679;-81
2021/09/10 02:37:44;;;;;;;9.35;5.80;;;;;;;;;;5066944;28;20241;-82
2021/09/10 02:40:14;;;;;;;13.75;5.70;;;;;;;;;;5066288;28;20281;-81
2021/09/10 02:42:43;;;;;;;9.80;5.93;;;;;;;;;;5066292;28;20204;-81
2021/09/10 02:45:14;;;;;;;15.80;6.35;;;;;;;;;;5064515;28;20196;-81
2021/09/10 02:47:44;;;;;;;9.55;6.22;;;;;;;;;;5059478;28;20307;-81
2021/09/10 02:50:13;;;;;;;10.40;6.38;;;;;;;;;;5068467;28;20282;-81
2021/09/10 02:52:42;;;;;;;14.07;6.18;;;;;;;;;;5067772;28;20230;-81
2021/09/10 02:55:12;;;;;;;12.35;6.68;;;;;;;;;;5068364;28;20286;-82
2021/09/10 02:57:42;;;;;;;10.45;6.53;;;;;;;;;;5067920;28;20283;-81
2021/09/10 03:00:11;;;;;;;8.13;6.75;;;;;;;;;;5064299;28;20223;-81
2021/09/10 03:02:42;;;;;;;11.13;7.28;;;;;;;;;;5065390;28;20255;-81
2021/09/10 03:05:12;;;;;;;10.40;7.43;;;;;;;;;;5070220;28;20230;-81
2021/09/10 03:07:41;;;;;;;10.82;8.10;;;;;;;;;;5071760;28;20310;-82
2021/09/10 03:10:11;;;;;;;10.43;7.68;;;;;;;;;;5062781;28;20275;-81
2021/09/10 03:12:42;;;;;;;13.38;8.35;;;;;;;;;;5059109;28;20278;-81
2021/09/10 03:15:14;;;;;;;17.05;8.85;;;;;;;;;;5067078;28;20231;-81
2021/09/10 03:17:45;;;;;;;14.25;8.68;;;;;;;;;;5067192;28;20235;-81
2021/09/10 03:20:16;;;;;;;15.35;8.23;;;;;;;;;;5073485;28;20283;-80
2021/09/10 03:22:46;;;;;;;11.85;8.32;;;;;;;;;;5065970;28;20313;-82
2021/09/10 03:25:16;;;;;;;17.40;8.48;;;;;;;;;;5070035;28;20282;-81
2021/09/10 03:27:46;;;;;;;18.30;8.15;;;;;;;;;;5068716;28;20211;-82
2021/09/10 03:30:16;;;;;;;13.02;8.25;;;;;;;;;;5060652;28;20274;-81
2021/09/10 03:32:46;;;;;;;14.43;8.82;;;;;;;;;;5063542;28;20250;-81
2021/09/10 03:35:15;;;;;;;13.77;8.07;;;;;;;;;;5069474;28;20191;-81
2021/09/10 03:37:43;;;;;;;13.38;8.43;;;;;;;;;;5060455;28;20230;-81
2021/09/10 03:40:12;;;;;;;12.20;8.40;;;;;;;;;;5061509;28;20279;-82
2021/09/10 03:42:40;;;;;;;14.83;8.67;;;;;;;;;;5061975;28;20227;-81
2021/09/10 03:45:10;;;;;;;11.90;8.73;;;;;;;;;;5059788;28;20290;-82
2021/09/10 03:47:37;;;;;;;14.35;8.95;;;;;;;;;;5058352;28;20250;-81
2021/09/10 03:50:07;;;;;;;13.57;8.13;;;;;;;;;;5069072;28;20237;-81
2021/09/10 03:52:35;;;;;;;12.23;8.45;;;;;;;;;;5061230;28;20283;-82
2021/09/10 03:55:03;;;;;;;13.10;8.20;;;;;;;;;;5070122;28;20642;-81
2021/09/10 03:57:29;;;;;;;12.95;8.90;;;17.00;99.90;;;;;;5064851;28;20227;-81
2021/09/10 03:59:56;;;;;;;12.98;7.93;;;17.10;99.90;;;;;;5061547;28;20278;-82
2021/09/10 04:02:23;;;;;;;15.30;8.87;;;17.10;99.90;;;;;;5061382;28;20286;-81
2021/09/10 04:04:50;;;;;;;13.00;8.83;;;17.10;99.90;;;;;;5062749;28;20286;-82
2021/09/10 04:07:18;;;;;;;16.33;8.90;;;17.10;99.90;;;;;;5061446;28;20286;-81
2021/09/10 04:09:45;;;;;;;14.10;9.13;;;17.10;99.90;;;;;;5067538;28;20218;-81
2021/09/10 04:12:12;;;;;;;13.77;8.93;;;17.20;99.90;;;;;;5062842;28;20227;-81
2021/09/10 04:14:39;;;;;;;10.90;8.57;;;17.10;99.90;;;;;;5057714;28;20234;-81
2021/09/10 04:17:06;;;;;;;12.77;8.50;;;17.10;99.90;;;;;;5060432;28;20274;-81
2021/09/10 04:19:33;;;;;;;16.07;9.43;;;17.20;99.90;;;;;;5064714;28;20231;-81
2021/09/10 04:22:00;;;;;;;10.83;8.37;;;17.10;99.90;;;;;;5060596;28;20235;-82
2021/09/10 04:24:28;;;;;;;14.88;9.93;;;17.20;99.90;;;;;;5054964;28;20242;-81
2021/09/10 04:26:55;;;;;;;18.20;9.40;;;17.10;99.90;;;;;;5064219;28;20817;-81
2021/09/10 04:29:22;;;;;;;19.07;9.67;;;17.10;99.90;;;;;;5064485;28;20775;-81
2021/09/10 04:31:49;;;;;;;16.13;9.30;;;17.10;99.90;;;;;;5064268;28;20737;-81
2021/09/10 04:34:16;;;;;;;12.65;9.18;;;17.10;99.90;;;;;;5060371;28;20285;-81
2021/09/10 04:36:43;;;;;;;15.65;10.05;;;17.10;99.90;;;;;;5068336;28;20603;-81
2021/09/10 04:39:10;;;;;;;13.47;10.57;;;17.10;99.90;;;;;;5060290;28;20226;-81
2021/09/10 04:41:38;;;;;;;14.13;10.27;;;17.20;99.90;;;;;;5071335;28;20766;-80
2021/09/10 04:44:05;;;;;;;18.67;11.80;;;17.20;99.90;;;;;;5071960;28;20222;-80
2021/09/10 04:46:32;;;;;;;16.63;11.77;;;17.30;99.90;;;;;;5054956;28;20231;-81
2021/09/10 04:48:59;;;;;;;19.00;11.13;;;17.30;99.90;;;;;;5066254;28;20307;-81
2021/09/10 04:51:29;;;;;;;16.85;11.45;;;17.30;99.90;;;;;;5052485;28;20580;-81
2021/09/10 04:53:56;;;;;;;17.55;11.60;;;17.30;99.90;;;;;;5052618;28;20663;-81
2021/09/10 04:56:24;;;;;;;19.17;11.50;;;17.40;99.90;;;;;;5060724;28;20192;-82
2021/09/10 04:58:52;;;;;;;15.83;10.87;;;17.40;99.90;;;;;;5060486;28;20280;-83
2021/09/10 05:01:19;;;;;;;15.07;10.77;;;17.30;99.90;;;;;;5063670;28;20257;-83
2021/09/10 05:03:46;;;;;;;14.32;10.30;;;17.40;99.90;;;;;;5062826;28;20666;-83
2021/09/10 05:06:14;;;;;;;19.27;11.10;;;17.30;99.90;;;;;;5071830;28;20239;-84
2021/09/10 05:08:41;;;;;;;19.40;10.60;;;17.40;99.90;;;;;;5067588;28;20220;-83
2021/09/10 05:11:07;;;;;;;19.10;10.63;;;17.40;99.90;;;;;;5062444;28;20679;-83
2021/09/10 05:13:34;;;;;;;17.50;10.63;;;17.40;99.90;;;;;;5070967;28;20278;-83
2021/09/10 05:16:03;;;;;;;14.32;10.23;;;17.40;99.90;;;;;;5057874;28;20679;-84
2021/09/10 05:18:30;;;;;;;15.23;10.45;;;17.40;99.90;;;;;;5065510;28;20219;-82
2021/09/10 05:20:58;;;;;;;16.75;10.88;;;17.40;99.90;;;;;;5063484;28;20235;-82
2021/09/10 05:23:25;;;;;;;14.15;10.20;;;17.40;99.90;;;;;;5068697;28;20286;-83
2021/09/10 05:25:52;;;;;;;16.03;10.80;;;17.40;99.90;;;;;;5060520;28;20227;-82
2021/09/10 05:28:19;;;;;;;17.17;10.83;;;17.40;99.90;;;;;;5061422;28;20762;-83
2021/09/10 05:30:46;;;;;;;16.43;10.83;;;17.40;99.90;;;;;;5060326;28;20235;-82
2021/09/10 05:33:49;;;;;;;16.23;10.70;;;17.40;99.90;;;;;;5069968;28;20238;-81
2021/09/10 05:36:16;;;;;;;17.83;10.93;;;17.40;99.90;;;;;;5055557;28;20623;-82
2021/09/10 05:41:48;;;;;;;17.65;10.30;;;17.50;99.90;;;;;;5052884;28;20218;-82
2021/09/10 05:44:15;;;;;;;14.07;9.70;;;17.40;99.90;;;;;;5061632;28;20205;-82
2021/09/10 05:46:42;;;;;;;16.20;10.57;;;17.50;99.90;;;;;;5062671;28;20207;-83
2021/09/10 05:49:11;;;;;;;14.10;10.48;;;17.40;99.90;;;;;;5066028;28;20215;-82
2021/09/10 05:51:39;;;;;;;18.43;10.63;;;17.50;99.90;;;;;;5054527;28;20195;-83
2021/09/10 05:54:06;;;;;;;17.90;10.38;;;17.50;99.90;;;;;;5070488;28;20203;-82
2021/09/10 05:56:33;;;;;;;18.15;10.90;;;17.40;99.90;;;;;;5070376;28;20261;-82
2021/09/10 05:59:00;;;;;;;15.93;9.93;;;17.60;99.90;;;;;;5060268;28;20282;-82
2021/09/10 06:01:27;;;;;;;14.68;10.45;;;17.50;99.90;;;;;;5058975;28;20585;-82
2021/09/10 06:03:54;;;;;;;17.63;10.88;;;17.50;99.90;;;;;;5060642;28;20875;-82
2021/09/10 06:06:37;;;;;;;17.80;10.57;;;17.60;99.90;;;;;;5065381;28;20581;-82
2021/09/10 06:09:05;;;;;;;14.80;9.98;;;17.60;99.90;;;;;;5062609;28;21012;-82
2021/09/10 06:11:32;;;;;;;13.93;9.88;;;17.70;99.90;;;;;;5065997;28;20219;-82
2021/09/10 06:13:59;;;;;;;17.08;10.38;;;17.70;99.90;;;;;;5072997;28;20228;-82
2021/09/10 06:16:27;;;;;;;18.30;11.02;;;17.70;99.90;;;;;;5069362;28;20305;-82
2021/09/10 06:18:54;;;;;;;19.40;11.15;;;17.80;99.90;;;;;;5074177;28;20609;-82
2021/09/10 06:21:22;;;;;;;13.88;9.85;;;17.90;99.90;;;;;;5070848;28;20196;-83
2021/09/10 06:23:51;;;;;;;18.05;10.85;;;17.90;99.90;;;;;;5064564;28;20209;-82
2021/09/10 06:26:22;;;;;;;17.35;10.25;;;;;;;;;;5069086;28;20199;-82
2021/09/10 06:28:50;;;;;;;16.17;9.60;;;;;;;;;;5067361;28;20215;-83
2021/09/10 06:31:18;;;;;;;17.13;10.25;;;;;;;;;;5071508;28;20577;-83
2021/09/10 06:33:46;;;;;;;17.45;9.88;;;;;;;;;;5075137;28;20203;-83
2021/09/10 06:36:14;;;;;;;16.23;10.02;;;;;;;;;;5074412;28;20206;-82
2021/09/10 06:38:42;;;;;;;17.75;9.63;;;;;;;;;;5073361;28;20206;-83
2021/09/10 06:41:12;;;;;;;13.75;9.55;;;;;;;;;;5069028;28;20199;-83
2021/09/10 06:43:42;;;;;;;15.52;10.00;;;;;;;;;;5071891;28;20203;-83
2021/09/10 06:46:11;;;;;;;14.40;9.35;;;;;;;;;;5061804;28;20218;-82
2021/09/10 06:48:41;;;;;;;15.95;9.93;;;;;;;;;;5069951;28;20222;-83
2021/09/10 06:51:10;;;;;;;15.63;9.20;;;;;;;;;;5069345;28;20206;-83
2021/09/10 06:53:39;;;;;;;19.13;9.85;;;;;;;;;;5069312;28;20207;-83
2021/09/10 06:56:07;;;;;;;16.80;9.70;;;;;;;;;;5071642;28;20198;-82
2021/09/10 06:58:39;;;;;;;15.95;10.20;;;;;;;;;;5063570;28;20191;-82
2021/09/10 07:01:08;;;;;;;16.08;10.50;;;;;;;;;;5072865;28;20227;-83
2021/09/10 07:03:38;;;;;;;16.23;10.10;;;;;;;;;;5065100;28;20231;-82
2021/09/10 07:06:07;;;;;;;15.43;9.07;;;;;;;;;;5044892;28;20202;-82
2021/09/10 07:08:36;;;;;;;15.10;9.65;;;;;;;;;;5073271;28;20254;-82
2021/09/10 07:11:05;;;;;;;17.13;10.27;;;;;;;;;;5069231;28;20199;-82
2021/09/10 07:13:33;;;;;;;17.33;9.43;;;;;;;;;;5071561;28;20207;-82
2021/09/10 07:16:04;;;;;;;17.30;10.52;;;;;;;;;;5054930;28;20581;-83
2021/09/10 07:18:33;;;;;;;16.95;10.18;;;;;;;;;;5060066;28;20192;-82
2021/09/10 07:21:03;;;;;;;16.13;9.57;;;;;;;;;;5069158;28;20678;-82
2021/09/10 07:23:33;;;;;;;17.77;10.23;;;;;;;;;;5059229;28;20195;-82
2021/09/10 07:26:04;;;;;;;18.48;10.80;;;;;;;;;;5059968;28;20195;-82
2021/09/10 07:28:33;;;;;;;18.70;10.68;;;;;;;;;;5053743;28;20200;-82
2021/09/10 07:31:03;;;;;;;17.67;9.95;;;;;;;;;;5042257;28;20203;-82
2021/09/10 07:33:35;;;;;;;18.77;9.98;;;;;;;;;;5072785;28;20203;-83
2021/09/10 07:36:05;;;;;;;15.63;10.27;;;;;;;;;;5055532;28;20280;-83
2021/09/10 07:38:34;;;;;;;13.98;9.23;;;;;;;;;;5060597;28;20579;-83
2021/09/10 07:41:02;;;;;;;15.02;9.68;;;;;;;;;;5073353;28;20207;-83
2021/09/10 07:43:31;;;;;;;18.15;9.77;;;;;;;;;;5073499;28;20200;-82
2021/09/10 07:45:59;;;;;;;16.38;10.30;;;;;;;;;;5070137;28;20199;-82
2021/09/10 07:48:29;;;;;;;15.63;10.23;;;;;;;;;;5056361;28;20207;-82
2021/09/10 07:50:57;;;;;;;13.52;9.63;;;;;;;;;;5066591;28;20211;-82
2021/09/10 07:53:25;;;;;;;15.07;9.20;;;;;;;;;;5073870;28;20195;-82
2021/09/10 07:55:54;;;;;;;12.18;8.23;;;;;;;;;;5072231;28;20202;-82
2021/09/10 07:58:22;;;;;;;16.02;9.02;;;;;;;;;;5066723;28;20199;-83
2021/09/10 08:00:50;;;;;;;51.05;24.08;;;;;;;;;;5058962;28;20204;-82
2021/09/10 08:03:19;;;;;;;26.65;12.98;;;;;;;;;;5064094;28;20227;-82
2021/09/10 08:05:50;;;;;;;16.17;9.25;;;;;;;;;;5065196;28;20223;-82
2021/09/10 08:08:19;;;;;;;12.73;8.52;;;;;;;;;;5054998;28;20200;-82
2021/09/10 08:10:48;;;;;;;15.35;8.90;;;;;;;;;;5056894;28;20313;-83
2021/09/10 08:13:20;;;;;;;16.00;8.80;;;;;;;;;;5053984;28;20199;-82
2021/09/10 08:15:50;;;;;;;13.43;8.35;;;;;;;;;;5064570;28;20749;-83
2021/09/10 08:18:20;;;;;;;12.45;7.88;;;;;;;;;;5054642;28;20200;-82
2021/09/10 08:20:55;;;;;;;17.52;7.63;;;;;;;;;;5059787;28;20238;-83
2021/09/10 08:23:25;;;;;;;18.73;10.60;;;;;;;;;;5051165;28;20582;-83
2021/09/10 08:25:55;;;;;;;16.65;11.15;;;20.40;99.90;;;;;;5063816;28;20290;-83
2021/09/10 08:28:24;;;;;;;28.23;17.35;;;20.50;99.90;;;;;;5064779;28;20282;-82
2021/09/10 08:30:54;;;;;;;19.98;13.73;;;;;;;;;;5057038;28;20315;-83
2021/09/10 08:33:24;;;;;;;18.30;12.80;;;;;;;;;;5060237;28;20283;-83
2021/09/10 08:35:58;;;;;;;15.95;11.23;;;;;;;;;;5064280;28;20291;-82
2021/09/10 08:38:29;;;;;;;16.23;9.32;;;;;;;;;;5057921;28;20674;-84
2021/09/10 08:41:00;;;;;;;12.43;7.93;;;;;;;;;;5065680;28;20203;-84
2021/09/10 08:43:30;;;;;;;12.65;7.60;;;;;;;;;;5058901;28;20679;-83
2021/09/10 08:46:00;;;;;;;12.80;7.10;;;;;;;;;;5068515;28;20693;-83
2021/09/10 08:48:29;;;;;;;10.07;8.07;;;;;;;;;;5065223;28;20638;-84
2021/09/10 08:51:00;;;;;;;15.93;8.18;;;;;;;;;;5064563;28;20254;-83
2021/09/10 08:53:29;;;;;;;9.73;6.72;;;;;;;;;;5072451;28;20235;-83
2021/09/10 08:55:59;;;;;;;18.35;12.73;;;;;;;;;;5062773;28;20274;-83
2021/09/10 08:58:28;;;;;;;20.25;13.48;;;;;;;;;;5072429;28;20291;-82
2021/09/10 09:01:01;;;;;;;28.40;17.98;;;;;;;;;;5056286;28;20283;-83
2021/09/10 09:03:31;;;;;;;35.60;20.73;;;;;;;;;;5066748;28;20249;-83
2021/09/10 09:06:02;;;;;;;9.45;7.35;;;;;;;;;;5069871;28;20235;-82
2021/09/10 09:08:32;;;;;;;10.00;5.68;;;;;;;;;;5057952;28;20199;-83
2021/09/10 09:11:03;;;;;;;10.85;7.32;;;;;;;;;;5061711;28;20215;-83
2021/09/10 09:13:33;;;;;;;8.68;5.75;;;;;;;;;;5060862;28;20199;-83
2021/09/10 09:16:16;;;;;;;8.43;5.65;;;;;;;;;;5060314;28;20205;-83
2021/09/10 09:18:47;;;;;;;6.70;5.32;;;;;;;;;;5068652;28;20257;-83
2021/09/10 09:21:16;;;;;;;5.72;4.57;;;;;;;;;;5059406;28;20756;-83
2021/09/10 09:23:44;;;;;;;5.07;3.25;;;;;;;;;;5059705;28;20210;-83
2021/09/10 09:26:15;;;;;;;4.25;3.30;;;;;;;;;;5071015;28;20286;-83
2021/09/10 09:28:42;;;;;;;5.28;3.80;;;;;;;;;;5070642;28;20238;-83
2021/09/10 09:31:12;;;;;;;5.40;4.03;;;;;;;;;;5060273;28;20303;-84
2021/09/10 09:33:40;;;;;;;5.72;3.95;;;;;;;;;;5069799;28;20206;-84
2021/09/10 09:36:10;;;;;;;4.65;3.38;;;;;;;;;;5063959;28;20592;-83
2021/09/10 09:38:40;;;;;;;3.70;3.08;;;;;;;;;;5065274;28;20622;-83
2021/09/10 09:41:08;;;;;;;6.63;3.78;;;;;;;;;;5067072;28;20566;-84
2021/09/10 09:43:36;;;;;;;5.00;3.78;;;;;;;;;;5067811;28;20192;-84
2021/09/10 09:46:07;;;;;;;5.60;3.90;;;;;;;;;;5067483;28;20201;-83
2021/09/10 09:48:37;;;;;;;5.25;3.80;;;;;;;;;;5063331;28;20192;-83
2021/09/10 09:51:04;;;;;;;4.55;3.20;;;;;;;;;;5067245;28;20246;-83
2021/09/10 09:53:32;;;;;;;2.92;2.65;;;;;;;;;;5058754;28;20232;-83
2021/09/10 09:59:24;;;;;;;3.35;2.40;;;;;;;;;;4912794;29;20338;-84
2021/09/10 10:01:52;;;;;;;2.97;2.58;;;;;;;;;;4912120;29;20220;-84
2021/09/10 10:04:21;;;;;;;3.70;2.55;;;;;;;;;;4910845;29;20212;-83
2021/09/10 10:06:50;;;;;;;4.50;2.78;;;;;;;;;;4912013;29;20658;-83
2021/09/10 10:09:22;;;;;;;4.55;2.75;;;;;;;;;;4911483;29;20223;-83
2021/09/10 10:11:50;;;;;;;4.30;2.60;;;;;;;;;;4912773;29;20251;-84
2021/09/10 10:14:31;;;;;;;2.80;2.30;;;;;;;;;;4911585;29;20205;-84
2021/09/10 10:17:02;;;;;;;3.17;2.38;;;;;;;;;;4907217;29;20211;-83
2021/09/10 10:19:45;;;;;;;3.15;2.60;;;;;;;;;;4911420;29;20210;-83
2021/09/10 10:22:13;;;;;;;3.03;2.40;;;;;;;;;;4910158;29;20686;-83
2021/09/10 10:24:41;;;;;;;3.00;2.60;;;;;;;;;;4910247;29;20544;-82
2021/09/10 10:27:30;;;;;;;4.45;2.90;;;;;;;;;;4911754;29;20283;-84
2021/09/10 10:29:57;;;;;;;5.30;3.13;;;;;;;;;;4908939;29;20215;-84
2021/09/10 10:32:33;;;;;;;4.07;2.67;;;;;;;;;;4913273;28;20837;-84
2021/09/10 10:35:15;;;;;;;2.90;2.15;;;;;;;;;;5026392;28;20278;-84
2021/09/10 10:37:43;;;;;;;2.47;2.13;;;;;;;;;;5057417;28;20287;-82
2021/09/10 10:40:28;;;;;;;2.50;2.10;;;;;;;;;;5073281;28;20203;-82
2021/09/10 10:42:58;;;;;;;1.80;1.70;;;;;;;;;;5064502;28;20294;-82
2021/09/10 10:45:42;;;;;;;2.15;1.52;;;;;;;;;;5061904;28;20277;-81
2021/09/10 10:48:25;;;;;;;1.60;1.50;;;;;;;;;;5068003;28;20230;-83
2021/09/10 10:50:53;;;;;;;2.03;1.67;;;;;;;;;;5071750;28;20282;-82
2021/09/10 10:53:21;;;;;;;1.67;1.50;;;;;;;;;;5069479;28;20709;-84
2021/09/10 10:55:48;;;;;;;2.20;1.40;;;;;;;;;;5066214;28;20253;-81
2021/09/10 10:58:24;;;;;;;1.60;1.50;;;;;;;;;;5069475;28;20274;-84
2021/09/10 11:00:52;;;;;;;2.03;1.50;;;;;;;;;;5072982;28;20289;-81
2021/09/10 11:03:38;;;;;;;2.22;1.42;;;;;;;;;;5073238;28;20326;-84
2021/09/10 11:06:26;;;;;;;1.73;1.55;;;;;;;;;;5061508;28;20238;-84
2021/09/10 11:08:56;;;;;;;1.45;1.23;;;;;;;;;;5062313;28;20200;-84
2021/09/10 11:11:29;;;;;;;2.00;0.90;;;;;;;;;;5060478;28;20223;-84
2021/09/10 11:13:59;;;;;;;2.75;1.33;;;;;;;;;;5063559;28;20623;-82
2021/09/10 11:16:27;;;;;;;2.80;1.42;;;;;;;;;;5065547;28;20707;-83
2021/09/10 11:18:55;;;;;;;3.25;1.40;;;;;;;;;;5058370;28;20218;-83
2021/09/10 11:21:27;;;;;;;2.70;1.27;;;;;;;;;;5063876;28;20290;-83
2021/09/10 11:23:56;;;;;;;1.60;1.17;;;;;;;;;;5066060;28;20235;-83
2021/09/10 11:26:34;;;;;;;3.05;1.33;;;;;;;;;;5071758;28;20671;-83
2021/09/10 11:29:08;;;;;;;1.70;1.40;;;;;;;;;;5074074;28;20550;-83
2021/09/10 11:31:35;;;;;;;1.42;1.30;;;;;;;;;;5061707;28;20309;-83
2021/09/10 11:34:03;;;;;;;2.15;1.48;;;;;;;;;;5049642;28;20646;-83
2021/09/10 11:36:30;;;;;;;1.30;1.20;;;;;;;;;;5064613;28;20302;-83
2021/09/10 11:39:02;;;;;;;2.78;1.40;;;;;;;;;;5065604;28;20235;-82
2021/09/10 11:41:30;;;;;;;1.83;1.08;;;;;;;;;;5062451;28;20191;-83
2021/09/10 11:44:05;;;;;;;1.60;1.10;;;;;;;;;;5063756;28;20204;-83
2021/09/10 11:46:32;;;;;;;1.23;1.13;;;;;;;;;;5061470;28;20218;-84
2021/09/10 11:49:00;;;;;;;1.92;1.33;;;;;;;;;;5060151;28;20628;-82
2021/09/10 11:51:40;;;;;;;1.77;1.20;;;;;;;;;;5065675;28;20222;-83
2021/09/10 11:54:16;;;;;;;1.70;1.27;;;;;;;;;;5058398;28;20226;-83
2021/09/10 11:56:45;;;;;;;1.67;1.58;;;;;;;;;;5060943;28;20290;-83
2021/09/10 11:59:24;;;;;;;1.77;1.38;;;;;;;;;;5065602;28;20249;-84
2021/09/10 12:01:51;;;;;;;1.60;1.50;;;;;;;;;;5069570;28;20218;-84
2021/09/10 12:04:26;;;;;;;2.75;1.50;;;;;;;;;;5063628;28;20287;-84
2021/09/10 12:06:57;;;;;;;2.55;1.63;;;;;;;;;;5071776;28;20228;-83
2021/09/10 12:09:26;;;;;;;2.20;1.60;;;;;;;;;;5068130;28;20229;-83
2021/09/10 12:12:05;;;;;;;1.50;1.40;;;;;;;;;;5064453;28;20223;-84
2021/09/10 12:14:34;;;;;;;1.75;1.50;;;;;;;;;;5060851;28;20283;-84
2021/09/10 12:17:05;;;;;;;1.50;1.38;;;;;;;;;;5062991;28;20869;-84
2021/09/10 12:19:32;;;;;;;1.30;1.20;;;;;;;;;;5068523;28;20286;-84
2021/09/10 12:22:31;;;;;;;2.05;1.58;;;;;;;;;;5060835;28;20273;-84
2021/09/10 12:25:17;;;;;;;1.63;1.25;;;;;;;;;;5061974;28;20211;-85
2021/09/10 12:27:46;;;;;;;1.40;1.25;;;;;;;;;;5053858;28;20281;-83
2021/09/10 12:30:14;;;;;;;1.05;1.00;;;;;;;;;;5062463;28;20714;-83
2021/09/10 12:32:41;;;;;;;1.55;1.38;;;;;;;;;;5071187;28;20306;-84
2021/09/10 12:35:09;;;;;;;1.40;1.30;;;;;;;;;;5059502;28;20611;-83
2021/09/10 12:37:36;;;;;;;1.65;1.40;;;;;;;;;;5069082;28;20285;-84
2021/09/10 12:40:04;;;;;;;1.80;1.35;;;;;;;;;;5069413;28;20282;-84
2021/09/10 12:42:31;;;;;;;2.75;1.30;;;;;;;;;;5062818;28;20291;-83
2021/09/10 12:45:00;;;;;;;2.55;1.40;;;;;;;;;;5069090;28;20284;-84
2021/09/10 12:47:27;;;;;;;1.65;1.55;;;;;;;;;;5061793;28;20187;-84
2021/09/10 12:49:54;;;;;;;1.45;1.35;;;;;;;;;;5065089;28;20223;-84
2021/09/10 12:52:21;;;;;;;1.48;1.10;;;;;;;;;;5062146;28;20215;-83
2021/09/10 12:54:48;;;;;;;2.30;1.25;;;;;;;;;;5071844;28;20290;-82
2021/09/10 12:57:16;;;;;;;1.13;1.02;;;;;;;;;;5070630;28;20198;-82
2021/09/10 12:59:43;;;;;;;1.30;1.10;;;;;;;;;;5054152;28;20290;-82
2021/09/10 13:02:13;;;;;;;1.75;1.20;;;;;;;;;;5070307;28;20237;-82
2021/09/10 13:04:40;;;;;;;1.15;1.05;;;;;;;;;;5058065;28;20208;-82
2021/09/10 13:07:08;;;;;;;1.42;1.08;;;;;;;;;;5067073;28;20221;-83
2021/09/10 13:09:35;;;;;;;1.77;1.10;;;;;;;;;;5059937;28;20689;-82
2021/09/10 13:12:05;;;;;;;1.75;1.30;;;;;;;;;;5054830;28;20762;-82
2021/09/10 13:14:32;;;;;;;1.67;0.95;;;;;;;;;;5066392;28;20191;-82
2021/09/10 13:17:02;;;;;;;1.20;1.05;;;;;;;;;;5063267;28;20195;-82
2021/09/10 13:19:30;;;;;;;1.20;1.10;;;;;;;;;;5060446;28;20286;-82
2021/09/10 13:21:58;;;;;;;1.85;1.00;;;;;;;;;;5060303;28;20227;-81
2021/09/10 13:24:25;;;;;;;2.35;1.30;;;;;;;;;;5061941;28;20650;-82
2021/09/10 13:26:52;;;;;;;2.03;1.30;;;;;;;;;;5064502;28;20203;-82
2021/09/10 13:29:19;;;;;;;1.50;1.30;;;;;;;;;;5056090;28;20207;-82
2021/09/10 13:31:46;;;;;;;1.88;1.23;;;;;;;;;;5063672;28;20209;-82
2021/09/10 13:34:14;;;;;;;1.60;1.30;;;;;;;;;;5065911;28;20309;-82
2021/09/10 13:36:43;;;;;;;2.90;1.75;;;;;;;;;;5052670;28;20696;-82
2021/09/10 13:39:10;;;;;;;2.00;1.63;;;;;;;;;;5061899;28;20286;-82
2021/09/10 13:41:37;;;;;;;1.85;1.40;;;;;;;;;;5066625;28;20288;-82
2021/09/10 13:44:05;;;;;;;3.65;1.70;;;;;;;;;;5056493;28;20761;-82
2021/09/10 13:46:34;;;;;;;2.30;1.65;;;;;;;;;;5059484;28;20191;-82
2021/09/10 13:49:04;;;;;;;1.80;1.60;;;;;;;;;;5061585;28;20219;-81
2021/09/10 13:51:34;;;;;;;2.17;1.60;;;;;;;;;;5070754;28;20665;-81
2021/09/10 13:54:03;;;;;;;2.80;1.70;;;;;;;;;;5059512;28;20707;-81
2021/09/10 13:56:30;;;;;;;2.50;1.80;;;;;;;;;;5070833;28;20194;-81
2021/09/10 13:58:58;;;;;;;2.15;1.90;;;;;;;;;;5054318;28;20577;-81
2021/09/10 14:01:25;;;;;;;2.58;2.10;;;;;;;;;;5068922;28;20195;-80
2021/09/10 14:03:53;;;;;;;2.83;2.20;;;;;;;;;;5067152;28;20234;-80
2021/09/10 14:06:20;;;;;;;2.00;1.75;;;;;;;;;;5062887;28;20195;-80
2021/09/10 14:08:47;;;;;;;3.88;1.67;;;;;;;;;;5052154;28;20671;-80
2021/09/10 14:11:18;;;;;;;1.90;1.75;;;;;;;;;;5066641;28;20218;-80
2021/09/10 14:13:48;;;;;;;2.75;1.70;;;;;;;;;;5051942;28;20220;-80
2021/09/10 14:16:17;;;;;;;2.65;1.60;;;;;;;;;;5060694;28;20283;-80
2021/09/10 14:18:47;;;;;;;2.92;1.63;;;;;;;;;;5066508;28;20198;-79
2021/09/10 14:21:14;;;;;;;2.35;1.90;;;;;;;;;;5050817;28;21931;-79
2021/09/10 14:23:41;;;;;;;2.95;1.92;;;;;;;;;;5067693;28;20282;-79
2021/09/10 14:26:11;;;;;;;2.83;1.70;;;;;;;;;;5055590;28;20574;-79
2021/09/10 14:28:42;;;;;;;2.03;1.83;;;;;;;;;;5056352;28;20294;-79
2021/09/10 14:31:11;;;;;;;2.00;1.77;;;;;;;;;;5064832;28;20242;-79